sensor_id;sensor_type;location;lat;lon;timestamp;pressure;altitude;pressure_sealevel;temperature;humidity
10093;BME280;5085;48.092;11.484;2023-01-10T00:01:32;94689.28;;;3.41;100.00
10093;BME280;5085;48.092;11.484;2023-01-10T00:03:58;94689.19;;;3.36;100.00
10093;BME280;5085;48.092;11.484;2023-01-10T00:06:24;94691.19;;;3.29;100.00
10093;BME280;5085;48.092;11.484;2023-01-10T00:08:50;94692.16;;;3.23;100.00
10093;BME280;5085;48.092;11.484;2023-01-10T00:11:16;94695.31;;;3.20;100.00
10093;BME280;5085;48.092;11.484;2023-01-10T00:14:01;94692.63;;;3.20;100.00
10093;BME280;5085;48.092;11.484;2023-01-10T00:16:27;94693.19;;;3.22;100.00
10093;BME280;5085;48.092;11.484;2023-01-10T00:18:53;94695.63;;;3.23;100.00
10093;BME280;5085;48.092;11.484;2023-01-10T00:21:19;94698.38;;;3.29;100.00
10093;BME280;5085;48.092;11.484;2023-01-10T00:23:45;94702.16;;;3.33;100.00
10093;BME280;5085;48.092;11.484;2023-01-10T00:26:13;94711.03;;;3.38;100.00
10093;BME280;5085;48.092;11.484;2023-01-10T00:28:39;94704.19;;;3.42;100.00
10093;BME280;5085;48.092;11.484;2023-01-10T00:31:06;94713.31;;;3.46;100.00
10093;BME280;5085;48.092;11.484;2023-01-10T00:33:36;94717.34;;;3.49;100.00
10093;BME280;5085;48.092;11.484;2023-01-10T00:36:04;94721.16;;;3.53;100.00
10093;BME280;5085;48.092;11.484;2023-01-10T00:38:31;94724.13;;;3.57;100.00
10093;BME280;5085;48.092;11.484;2023-01-10T00:41:01;94737.53;;;3.62;100.00
10093;BME280;5085;48.092;11.484;2023-01-10T00:43:27;94733.81;;;3.63;100.00
10093;BME280;5085;48.092;11.484;2023-01-10T00:46:12;94751.97;;;3.66;100.00
10093;BME280;5085;48.092;11.484;2023-01-10T00:48:38;94755.19;;;3.68;100.00
10093;BME280;5085;48.092;11.484;2023-01-10T00:51:04;94753.13;;;3.70;100.00
10093;BME280;5085;48.092;11.484;2023-01-10T00:53:30;94762.72;;;3.71;100.00
10093;BME280;5085;48.092;11.484;2023-01-10T00:55:56;94768.38;;;3.74;100.00
10093;BME280;5085;48.092;11.484;2023-01-10T00:58:23;94766.25;;;3.76;100.00
10093;BME280;5085;48.092;11.484;2023-01-10T01:00:49;94769.50;;;3.79;100.00
10093;BME280;5085;48.092;11.484;2023-01-10T01:03:16;94772.72;;;3.81;100.00
10093;BME280;5085;48.092;11.484;2023-01-10T01:05:44;94780.44;;;3.82;100.00
10093;BME280;5085;48.092;11.484;2023-01-10T01:08:12;94778.38;;;3.84;100.00
10093;BME280;5085;48.092;11.484;2023-01-10T01:10:38;94783.69;;;3.84;100.00
10093;BME280;5085;48.092;11.484;2023-01-10T01:13:16;94781.84;;;3.85;100.00
10093;BME280;5085;48.092;11.484;2023-01-10T01:15:43;94795.97;;;3.85;100.00
10093;BME280;5085;48.092;11.484;2023-01-10T01:18:15;94809.06;;;3.87;100.00
10093;BME280;5085;48.092;11.484;2023-01-10T01:20:42;94811.72;;;3.87;100.00
10093;BME280;5085;48.092;11.484;2023-01-10T01:23:11;94809.06;;;3.87;100.00
10093;BME280;5085;48.092;11.484;2023-01-10T01:25:37;94813.31;;;3.88;100.00
10093;BME280;5085;48.092;11.484;2023-01-10T01:28:03;94813.53;;;3.86;100.00
10093;BME280;5085;48.092;11.484;2023-01-10T01:30:29;94823.38;;;3.86;100.00
10093;BME280;5085;48.092;11.484;2023-01-10T01:32:56;94836.72;;;3.86;100.00
10093;BME280;5085;48.092;11.484;2023-01-10T01:35:22;94840.19;;;3.86;100.00
10093;BME280;5085;48.092;11.484;2023-01-10T01:37:48;94839.38;;;3.86;100.00
10093;BME280;5085;48.092;11.484;2023-01-10T01:40:19;94846.56;;;3.85;100.00
10093;BME280;5085;48.092;11.484;2023-01-10T01:42:47;94846.34;;;3.87;100.00
10093;BME280;5085;48.092;11.484;2023-01-10T01:48:07;94852.47;;;3.87;100.00
10093;BME280;5085;48.092;11.484;2023-01-10T01:53:24;94876.66;;;3.86;100.00
10093;BME280;5085;48.092;11.484;2023-01-10T01:55:55;94875.03;;;3.85;100.00
10093;BME280;5085;48.092;11.484;2023-01-10T01:58:29;94876.91;;;3.84;100.00
10093;BME280;5085;48.092;11.484;2023-01-10T02:00:57;94868.91;;;3.84;100.00
10093;BME280;5085;48.092;11.484;2023-01-10T02:03:24;94869.97;;;3.83;100.00
10093;BME280;5085;48.092;11.484;2023-01-10T02:05:51;94868.31;;;3.82;100.00
10093;BME280;5085;48.092;11.484;2023-01-10T02:08:17;94867.78;;;3.80;100.00
10093;BME280;5085;48.092;11.484;2023-01-10T02:10:47;94882.94;;;3.80;100.00
10093;BME280;5085;48.092;11.484;2023-01-10T02:13:18;94885.88;;;3.78;100.00
10093;BME280;5085;48.092;11.484;2023-01-10T02:15:45;94880.53;;;3.78;100.00
10093;BME280;5085;48.092;11.484;2023-01-10T02:18:11;94885.88;;;3.78;100.00
10093;BME280;5085;48.092;11.484;2023-01-10T02:23:59;94891.19;;;3.78;100.00
10093;BME280;5085;48.092;11.484;2023-01-10T02:26:54;94895.47;;;3.79;100.00
10093;BME280;5085;48.092;11.484;2023-01-10T02:32:17;94907.16;;;3.78;100.00
10093;BME280;5085;48.092;11.484;2023-01-10T02:35:42;94911.44;;;3.79;100.00
10093;BME280;5085;48.092;11.484;2023-01-10T02:37:59;94914.09;;;3.79;100.00
10093;BME280;5085;48.092;11.484;2023-01-10T02:43:19;94920.69;;;3.76;100.00
10093;BME280;5085;48.092;11.484;2023-01-10T02:45:56;94925.81;;;3.78;100.00
10093;BME280;5085;48.092;11.484;2023-01-10T02:48:24;94927.06;;;3.75;100.00
10093;BME280;5085;48.092;11.484;2023-01-10T02:51:03;94929.16;;;3.73;100.00
10093;BME280;5085;48.092;11.484;2023-01-10T02:53:36;94939.00;;;3.73;100.00
10093;BME280;5085;48.092;11.484;2023-01-10T02:59:35;94943.75;;;3.71;100.00
10093;BME280;5085;48.092;11.484;2023-01-10T03:07:52;94949.00;;;3.54;100.00
10093;BME280;5085;48.092;11.484;2023-01-10T03:10:32;94949.38;;;3.46;100.00
10093;BME280;5085;48.092;11.484;2023-01-10T03:13:06;94954.34;;;3.42;100.00
10093;BME280;5085;48.092;11.484;2023-01-10T03:15:37;94952.75;;;3.41;100.00
10093;BME280;5085;48.092;11.484;2023-01-10T03:18:13;94959.69;;;3.42;100.00
10093;BME280;5085;48.092;11.484;2023-01-10T03:20:41;94966.41;;;3.45;100.00
10093;BME280;5085;48.092;11.484;2023-01-10T03:23:11;94969.63;;;3.47;100.00
10093;BME280;5085;48.092;11.484;2023-01-10T03:25:39;94974.47;;;3.50;100.00
10093;BME280;5085;48.092;11.484;2023-01-10T03:28:10;94988.13;;;3.54;100.00
10093;BME280;5085;48.092;11.484;2023-01-10T03:30:44;94987.88;;;3.55;100.00
10093;BME280;5085;48.092;11.484;2023-01-10T03:33:15;94991.16;;;3.57;100.00
10093;BME280;5085;48.092;11.484;2023-01-10T03:38:44;95005.91;;;3.65;100.00
10093;BME280;5085;48.092;11.484;2023-01-10T03:41:47;95014.25;;;3.68;100.00
10093;BME280;5085;48.092;11.484;2023-01-10T03:44:29;95014.25;;;3.68;100.00
10093;BME280;5085;48.092;11.484;2023-01-10T03:47:10;95014.59;;;3.72;100.00
10093;BME280;5085;48.092;11.484;2023-01-10T03:49:38;95018.06;;;3.72;100.00
10093;BME280;5085;48.092;11.484;2023-01-10T03:52:09;95031.16;;;3.74;100.00
10093;BME280;5085;48.092;11.484;2023-01-10T03:54:36;95032.78;;;3.75;100.00
10093;BME280;5085;48.092;11.484;2023-01-10T03:57:04;95037.06;;;3.76;100.00
10093;BME280;5085;48.092;11.484;2023-01-10T03:59:30;95041.31;;;3.77;100.00
10093;BME280;5085;48.092;11.484;2023-01-10T04:01:56;95042.97;;;3.78;100.00
10093;BME280;5085;48.092;11.484;2023-01-10T04:04:22;95055.22;;;3.79;100.00
10093;BME280;5085;48.092;11.484;2023-01-10T04:06:48;95054.19;;;3.80;100.00
10093;BME280;5085;48.092;11.484;2023-01-10T04:09:14;95056.59;;;3.82;100.00
10093;BME280;5085;48.092;11.484;2023-01-10T04:11:40;95058.25;;;3.83;100.00
10093;BME280;5085;48.092;11.484;2023-01-10T04:14:06;95062.53;;;3.84;100.00
10093;BME280;5085;48.092;11.484;2023-01-10T04:16:32;95080.34;;;3.83;100.00
10093;BME280;5085;48.092;11.484;2023-01-10T04:18:58;95072.94;;;3.85;100.00
10093;BME280;5085;48.092;11.484;2023-01-10T04:21:24;95072.13;;;3.85;100.00
10093;BME280;5085;48.092;11.484;2023-01-10T04:23:51;95087.84;;;3.86;100.00
10093;BME280;5085;48.092;11.484;2023-01-10T04:26:16;95091.34;;;3.87;100.00
10093;BME280;5085;48.092;11.484;2023-01-10T04:28:42;95090.31;;;3.88;100.00
10093;BME280;5085;48.092;11.484;2023-01-10T04:31:08;95103.63;;;3.88;100.00
10093;BME280;5085;48.092;11.484;2023-01-10T04:33:34;95106.28;;;3.88;100.00
10093;BME280;5085;48.092;11.484;2023-01-10T04:36:01;95108.16;;;3.87;100.00
10093;BME280;5085;48.092;11.484;2023-01-10T04:38:27;95109.16;;;3.86;100.00
10093;BME280;5085;48.092;11.484;2023-01-10T04:40:54;95119.25;;;3.84;100.00
10093;BME280;5085;48.092;11.484;2023-01-10T04:43:20;95118.91;;;3.81;100.00
10093;BME280;5085;48.092;11.484;2023-01-10T04:45:47;95125.53;;;3.78;100.00
10093;BME280;5085;48.092;11.484;2023-01-10T04:48:13;95136.38;;;3.76;100.00
10093;BME280;5085;48.092;11.484;2023-01-10T04:50:39;95132.13;;;3.75;100.00
10093;BME280;5085;48.092;11.484;2023-01-10T04:53:05;95135.03;;;3.74;100.00
10093;BME280;5085;48.092;11.484;2023-01-10T04:55:32;95139.28;;;3.75;100.00
10093;BME280;5085;48.092;11.484;2023-01-10T04:57:58;95147.50;;;3.73;100.00
10093;BME280;5085;48.092;11.484;2023-01-10T05:00:25;95149.34;;;3.73;100.00
10093;BME280;5085;48.092;11.484;2023-01-10T05:02:55;95149.59;;;3.71;100.00
10093;BME280;5085;48.092;11.484;2023-01-10T05:05:22;95161.28;;;3.70;100.00
10093;BME280;5085;48.092;11.484;2023-01-10T05:07:48;95166.63;;;3.70;100.00
10093;BME280;5085;48.092;11.484;2023-01-10T05:10:14;95166.25;;;3.67;100.00
10093;BME280;5085;48.092;11.484;2023-01-10T05:12:40;95171.59;;;3.67;100.00
10093;BME280;5085;48.092;11.484;2023-01-10T05:15:07;95168.31;;;3.65;100.00
10093;BME280;5085;48.092;11.484;2023-01-10T05:17:33;95183.50;;;3.64;100.00
10093;BME280;5085;48.092;11.484;2023-01-10T05:19:59;95183.50;;;3.64;100.00
10093;BME280;5085;48.092;11.484;2023-01-10T05:22:25;95182.94;;;3.62;100.00
10093;BME280;5085;48.092;11.484;2023-01-10T05:24:51;95197.06;;;3.63;100.00
10093;BME280;5085;48.092;11.484;2023-01-10T05:27:17;95200.75;;;3.62;100.00
10093;BME280;5085;48.092;11.484;2023-01-10T05:29:43;95204.44;;;3.61;100.00
10093;BME280;5085;48.092;11.484;2023-01-10T05:32:09;95209.75;;;3.61;100.00
10093;BME280;5085;48.092;11.484;2023-01-10T05:34:35;95212.44;;;3.61;100.00
10093;BME280;5085;48.092;11.484;2023-01-10T05:37:01;95212.44;;;3.61;100.00
10093;BME280;5085;48.092;11.484;2023-01-10T05:39:27;95211.84;;;3.59;100.00
10093;BME280;5085;48.092;11.484;2023-01-10T05:41:53;95219.03;;;3.58;100.00
10093;BME280;5085;48.092;11.484;2023-01-10T05:44:19;95222.50;;;3.59;100.00
10093;BME280;5085;48.092;11.484;2023-01-10T05:46:45;95239.28;;;3.59;100.00
10093;BME280;5085;48.092;11.484;2023-01-10T05:49:11;95242.19;;;3.58;100.00
10093;BME280;5085;48.092;11.484;2023-01-10T05:51:37;95247.50;;;3.58;100.00
10093;BME280;5085;48.092;11.484;2023-01-10T05:54:04;95238.72;;;3.57;100.00
10093;BME280;5085;48.092;11.484;2023-01-10T05:56:30;95246.69;;;3.57;100.00
10093;BME280;5085;48.092;11.484;2023-01-10T05:58:56;95253.84;;;3.57;100.00
10093;BME280;5085;48.092;11.484;2023-01-10T06:01:22;95265.34;;;3.57;100.00
10093;BME280;5085;48.092;11.484;2023-01-10T06:03:48;95263.50;;;3.69;100.00
10093;BME280;5085;48.092;11.484;2023-01-10T06:06:14;95267.03;;;4.05;100.00
10093;BME280;5085;48.092;11.484;2023-01-10T06:08:40;95268.41;;;4.08;100.00
10093;BME280;5085;48.092;11.484;2023-01-10T06:11:06;95277.09;;;4.03;100.00
10093;BME280;5085;48.092;11.484;2023-01-10T06:13:32;95289.50;;;3.97;100.00
10093;BME280;5085;48.092;11.484;2023-01-10T06:15:59;95295.75;;;3.91;100.00
10093;BME280;5085;48.092;11.484;2023-01-10T06:18:25;95303.59;;;3.86;100.00
10093;BME280;5085;48.092;11.484;2023-01-10T06:20:51;95307.53;;;3.84;100.00
10093;BME280;5085;48.092;11.484;2023-01-10T06:23:17;95315.19;;;3.80;100.00
10093;BME280;5085;48.092;11.484;2023-01-10T06:25:43;95320.13;;;3.76;100.00
10093;BME280;5085;48.092;11.484;2023-01-10T06:28:11;95326.28;;;3.77;100.00
10093;BME280;5085;48.092;11.484;2023-01-10T06:30:39;95319.31;;;3.76;100.00
10093;BME280;5085;48.092;11.484;2023-01-10T06:33:07;95328.13;;;3.76;100.00
10093;BME280;5085;48.092;11.484;2023-01-10T06:35:34;95329.16;;;3.75;100.00
10093;BME280;5085;48.092;11.484;2023-01-10T06:38:00;95336.94;;;3.77;100.00
10093;BME280;5085;48.092;11.484;2023-01-10T06:40:27;95342.72;;;3.74;100.00
10093;BME280;5085;48.092;11.484;2023-01-10T06:42:53;95342.72;;;3.74;100.00
10093;BME280;5085;48.092;11.484;2023-01-10T06:45:19;95352.78;;;3.72;100.00
10093;BME280;5085;48.092;11.484;2023-01-10T06:47:45;95357.06;;;3.73;100.00
10093;BME280;5085;48.092;11.484;2023-01-10T06:50:12;95359.72;;;3.73;100.00
10093;BME280;5085;48.092;11.484;2023-01-10T06:52:38;95380.00;;;3.74;100.00
10093;BME280;5085;48.092;11.484;2023-01-10T06:55:05;95384.06;;;3.76;100.00
10093;BME280;5085;48.092;11.484;2023-01-10T06:57:32;95385.09;;;3.75;100.00
10093;BME280;5085;48.092;11.484;2023-01-10T07:00:04;95387.75;;;3.75;100.00
10093;BME280;5085;48.092;11.484;2023-01-10T07:02:31;95403.75;;;3.75;100.00
10093;BME280;5085;48.092;11.484;2023-01-10T07:04:57;95403.75;;;3.75;100.00
10093;BME280;5085;48.092;11.484;2023-01-10T07:07:23;95409.06;;;3.75;100.00
10093;BME280;5085;48.092;11.484;2023-01-10T07:09:49;95420.28;;;3.78;100.00
10093;BME280;5085;48.092;11.484;2023-01-10T07:12:15;95430.13;;;3.77;100.00
10093;BME280;5085;48.092;11.484;2023-01-10T07:14:41;95442.44;;;3.78;100.00
10093;BME280;5085;48.092;11.484;2023-01-10T07:17:07;95445.09;;;3.78;100.00
10093;BME280;5085;48.092;11.484;2023-01-10T07:19:33;95452.03;;;3.79;100.00
10093;BME280;5085;48.092;11.484;2023-01-10T07:21:59;95461.06;;;3.78;100.00
10093;BME280;5085;48.092;11.484;2023-01-10T07:24:25;95465.38;;;3.79;100.00
10093;BME280;5085;48.092;11.484;2023-01-10T07:26:56;95463.94;;;3.76;100.00
10093;BME280;5085;48.092;11.484;2023-01-10T07:29:22;95478.31;;;3.75;100.00
10093;BME280;5085;48.092;11.484;2023-01-10T07:31:48;95474.84;;;3.75;100.00
10093;BME280;5085;48.092;11.484;2023-01-10T07:34:14;95484.69;;;3.74;100.00
10093;BME280;5085;48.092;11.484;2023-01-10T07:36:40;95495.09;;;3.76;100.00
10093;BME280;5085;48.092;11.484;2023-01-10T07:39:06;95509.03;;;3.78;100.00
10093;BME280;5085;48.092;11.484;2023-01-10T07:41:32;95506.94;;;3.80;100.00
10093;BME280;5085;48.092;11.484;2023-01-10T07:43:58;95518.16;;;3.82;100.00
10093;BME280;5085;48.092;11.484;2023-01-10T07:46:24;95527.56;;;3.85;100.00
10093;BME280;5085;48.092;11.484;2023-01-10T07:48:51;95523.06;;;3.85;100.00
10093;BME280;5085;48.092;11.484;2023-01-10T07:51:18;95534.31;;;3.87;100.00
10093;BME280;5085;48.092;11.484;2023-01-10T07:53:44;95537.78;;;3.88;100.00
10093;BME280;5085;48.092;11.484;2023-01-10T07:56:10;95541.84;;;3.90;100.00
10093;BME280;5085;48.092;11.484;2023-01-10T07:58:36;95550.19;;;3.94;100.00
10093;BME280;5085;48.092;11.484;2023-01-10T08:01:04;95557.75;;;3.97;100.00
10093;BME280;5085;48.092;11.484;2023-01-10T08:03:32;95551.38;;;3.98;100.00
10093;BME280;5085;48.092;11.484;2023-01-10T08:05:59;95555.91;;;3.97;100.00
10093;BME280;5085;48.092;11.484;2023-01-10T08:08:26;95565.16;;;3.95;100.00
10093;BME280;5085;48.092;11.484;2023-01-10T08:10:52;95556.34;;;3.94;100.00
10093;BME280;5085;48.092;11.484;2023-01-10T08:13:19;95573.97;;;3.95;100.00
10093;BME280;5085;48.092;11.484;2023-01-10T08:15:45;95576.97;;;3.99;100.00
10093;BME280;5085;48.092;11.484;2023-01-10T08:18:11;95587.44;;;4.00;100.00
10093;BME280;5085;48.092;11.484;2023-01-10T08:20:37;95592.78;;;4.00;100.00
10093;BME280;5085;48.092;11.484;2023-01-10T08:23:03;95595.44;;;4.00;100.00
10093;BME280;5085;48.092;11.484;2023-01-10T08:25:29;95591.34;;;3.98;100.00
10093;BME280;5085;48.092;11.484;2023-01-10T08:27:55;95602.81;;;3.98;100.00
10093;BME280;5085;48.092;11.484;2023-01-10T08:30:22;95606.53;;;3.97;100.00
10093;BME280;5085;48.092;11.484;2023-01-10T08:32:48;95628.44;;;3.99;100.00
10093;BME280;5085;48.092;11.484;2023-01-10T08:35:14;95629.25;;;4.00;100.00
10093;BME280;5085;48.092;11.484;2023-01-10T08:37:40;95627.59;;;3.99;100.00
10093;BME280;5085;48.092;11.484;2023-01-10T08:40:07;95632.72;;;4.00;100.00
10093;BME280;5085;48.092;11.484;2023-01-10T08:42:33;95636.44;;;3.99;100.00
10093;BME280;5085;48.092;11.484;2023-01-10T08:44:59;95637.69;;;3.97;100.00
10093;BME280;5085;48.092;11.484;2023-01-10T08:47:26;95643.00;;;3.97;100.00
10093;BME280;5085;48.092;11.484;2023-01-10T08:49:52;95650.78;;;3.98;100.00
10093;BME280;5085;48.092;11.484;2023-01-10T08:52:18;95660.19;;;4.01;100.00
10093;BME280;5085;48.092;11.484;2023-01-10T08:54:44;95667.13;;;4.02;100.00
10093;BME280;5085;48.092;11.484;2023-01-10T08:57:10;95669.13;;;4.07;100.00
10093;BME280;5085;48.092;11.484;2023-01-10T08:59:36;95665.91;;;4.05;100.00
10093;BME280;5085;48.092;11.484;2023-01-10T09:02:02;95679.22;;;4.05;100.00
10093;BME280;5085;48.092;11.484;2023-01-10T09:04:29;95670.47;;;3.97;100.00
10093;BME280;5085;48.092;11.484;2023-01-10T09:06:56;95676.88;;;3.90;100.00
10093;BME280;5085;48.092;11.484;2023-01-10T09:09:22;95685.34;;;3.87;100.00
10093;BME280;5085;48.092;11.484;2023-01-10T09:11:48;95683.69;;;3.86;100.00
10093;BME280;5085;48.092;11.484;2023-01-10T09:14:14;95682.66;;;3.87;100.00
10093;BME280;5085;48.092;11.484;2023-01-10T09:16:40;95686.97;;;3.88;100.00
10093;BME280;5085;48.092;11.484;2023-01-10T09:19:06;95687.53;;;3.90;100.00
10093;BME280;5085;48.092;11.484;2023-01-10T09:21:32;95689.94;;;3.98;100.00
10093;BME280;5085;48.092;11.484;2023-01-10T09:23:58;95687.13;;;4.11;100.00
10093;BME280;5085;48.092;11.484;2023-01-10T09:26:24;95687.97;;;4.30;100.00
10093;BME280;5085;48.092;11.484;2023-01-10T09:28:50;95683.59;;;4.54;100.00
10093;BME280;5085;48.092;11.484;2023-01-10T09:31:16;95685.94;;;4.99;100.00
10093;BME280;5085;48.092;11.484;2023-01-10T09:33:42;95684.78;;;5.37;100.00
10093;BME280;5085;48.092;11.484;2023-01-10T09:36:09;95694.50;;;5.61;100.00
10093;BME280;5085;48.092;11.484;2023-01-10T09:38:35;95706.38;;;5.89;100.00
10093;BME280;5085;48.092;11.484;2023-01-10T09:44:04;95714.47;;;6.88;100.00
10093;BME280;5085;48.092;11.484;2023-01-10T09:49:28;95731.00;;;7.82;100.00
10093;BME280;5085;48.092;11.484;2023-01-10T09:51:59;95719.47;;;7.98;100.00
10093;BME280;5085;48.092;11.484;2023-01-10T09:54:40;95725.75;;;8.38;97.74
10093;BME280;5085;48.092;11.484;2023-01-10T09:57:14;95725.31;;;8.63;95.20
10093;BME280;5085;48.092;11.484;2023-01-10T09:59:41;95734.16;;;9.02;93.65
10093;BME280;5085;48.092;11.484;2023-01-10T10:02:35;95727.03;;;10.21;88.85
10093;BME280;5085;48.092;11.484;2023-01-10T10:05:21;95743.56;;;10.72;78.30
10093;BME280;5085;48.092;11.484;2023-01-10T10:07:56;95736.19;;;10.20;76.88
10093;BME280;5085;48.092;11.484;2023-01-10T10:10:26;95735.22;;;9.50;79.93
10093;BME280;5085;48.092;11.484;2023-01-10T10:13:07;95732.31;;;8.86;83.39
10093;BME280;5085;48.092;11.484;2023-01-10T10:18:30;95748.06;;;8.10;88.34
10093;BME280;5085;48.092;11.484;2023-01-10T10:21:35;95743.09;;;7.85;89.04
10093;BME280;5085;48.092;11.484;2023-01-10T10:35:32;95727.75;;;8.31;76.68
10093;BME280;5085;48.092;11.484;2023-01-10T10:38:11;95729.19;;;7.71;78.73
10093;BME280;5085;48.092;11.484;2023-01-10T10:40:41;95726.06;;;7.45;83.45
10093;BME280;5085;48.092;11.484;2023-01-10T10:43:17;95712.63;;;7.29;85.06
10093;BME280;5085;48.092;11.484;2023-01-10T10:45:51;95719.97;;;7.21;85.11
10093;BME280;5085;48.092;11.484;2023-01-10T10:48:26;95721.03;;;7.20;83.97
10093;BME280;5085;48.092;11.484;2023-01-10T10:51:01;95720.53;;;7.35;84.80
10093;BME280;5085;48.092;11.484;2023-01-10T10:53:30;95717.16;;;7.57;81.49
10093;BME280;5085;48.092;11.484;2023-01-10T10:55:57;95728.25;;;8.11;77.91
10093;BME280;5085;48.092;11.484;2023-01-10T10:58:27;95722.63;;;9.77;66.53
10093;BME280;5085;48.092;11.484;2023-01-10T11:00:55;95733.41;;;10.84;59.54
10093;BME280;5085;48.092;11.484;2023-01-10T11:03:39;95735.22;;;10.73;56.96
10093;BME280;5085;48.092;11.484;2023-01-10T11:06:08;95733.97;;;10.12;57.82
10093;BME280;5085;48.092;11.484;2023-01-10T11:08:40;95734.47;;;9.27;59.68
10093;BME280;5085;48.092;11.484;2023-01-10T11:11:26;95749.53;;;8.68;61.90
10093;BME280;5085;48.092;11.484;2023-01-10T11:13:55;95744.19;;;8.17;63.19
10093;BME280;5085;48.092;11.484;2023-01-10T11:16:41;95745.28;;;7.71;64.80
10093;BME280;5085;48.092;11.484;2023-01-10T11:19:09;95747.44;;;7.29;67.95
10093;BME280;5085;48.092;11.484;2023-01-10T11:21:37;95745.66;;;7.06;71.61
10093;BME280;5085;48.092;11.484;2023-01-10T11:24:19;95739.72;;;6.92;74.60
10093;BME280;5085;48.092;11.484;2023-01-10T11:26:45;95746.75;;;6.81;76.52
10093;BME280;5085;48.092;11.484;2023-01-10T11:31:44;95749.78;;;6.61;78.69
10093;BME280;5085;48.092;11.484;2023-01-10T11:34:32;95753.88;;;6.52;81.04
10093;BME280;5085;48.092;11.484;2023-01-10T11:37:07;95750.03;;;6.36;81.61
10093;BME280;5085;48.092;11.484;2023-01-10T11:39:42;95745.72;;;6.12;82.84
10093;BME280;5085;48.092;11.484;2023-01-10T11:42:37;95747.75;;;5.86;84.40
10093;BME280;5085;48.092;11.484;2023-01-10T11:47:45;95747.31;;;5.59;89.17
10093;BME280;5085;48.092;11.484;2023-01-10T11:50:20;95742.78;;;5.48;90.24
10093;BME280;5085;48.092;11.484;2023-01-10T11:52:47;95738.69;;;5.45;92.10
10093;BME280;5085;48.092;11.484;2023-01-10T11:55:20;95765.97;;;5.47;93.24
10093;BME280;5085;48.092;11.484;2023-01-10T11:57:57;95760.78;;;5.53;93.06
10093;BME280;5085;48.092;11.484;2023-01-10T12:00:34;95745.59;;;5.65;94.02
10093;BME280;5085;48.092;11.484;2023-01-10T12:03:02;95747.84;;;5.80;93.93
10093;BME280;5085;48.092;11.484;2023-01-10T12:05:39;95738.75;;;6.11;92.89
10093;BME280;5085;48.092;11.484;2023-01-10T12:08:05;95751.31;;;7.21;87.01
10093;BME280;5085;48.092;11.484;2023-01-10T12:10:33;95741.88;;;9.42;73.16
10093;BME280;5085;48.092;11.484;2023-01-10T12:13:13;95733.72;;;11.61;59.03
10093;BME280;5085;48.092;11.484;2023-01-10T12:15:39;95735.72;;;12.11;53.79
10093;BME280;5085;48.092;11.484;2023-01-10T12:18:06;95734.47;;;11.51;53.19
10093;BME280;5085;48.092;11.484;2023-01-10T12:20:40;95737.34;;;10.66;53.59
10093;BME280;5085;48.092;11.484;2023-01-10T12:23:15;95730.00;;;9.92;56.44
10093;BME280;5085;48.092;11.484;2023-01-10T12:25:43;95734.38;;;9.44;58.35
10093;BME280;5085;48.092;11.484;2023-01-10T12:28:17;95738.88;;;9.17;56.99
10093;BME280;5085;48.092;11.484;2023-01-10T12:30:46;95743.50;;;8.99;57.72
10093;BME280;5085;48.092;11.484;2023-01-10T12:33:20;95750.31;;;8.85;58.75
10093;BME280;5085;48.092;11.484;2023-01-10T12:35:58;95754.66;;;8.69;59.83
10093;BME280;5085;48.092;11.484;2023-01-10T12:38:36;95767.94;;;8.42;60.81
10093;BME280;5085;48.092;11.484;2023-01-10T12:41:29;95765.16;;;8.04;60.52
10093;BME280;5085;48.092;11.484;2023-01-10T12:44:22;95765.44;;;7.73;62.49
10093;BME280;5085;48.092;11.484;2023-01-10T12:46:58;95765.28;;;7.51;63.31
10093;BME280;5085;48.092;11.484;2023-01-10T12:49:42;95763.38;;;7.35;63.68
10093;BME280;5085;48.092;11.484;2023-01-10T12:52:16;95761.09;;;7.27;64.82
10093;BME280;5085;48.092;11.484;2023-01-10T12:54:45;95751.97;;;7.28;65.76
10093;BME280;5085;48.092;11.484;2023-01-10T12:57:27;95752.78;;;7.29;65.92
10093;BME280;5085;48.092;11.484;2023-01-10T12:59:56;95763.63;;;7.22;64.98
10093;BME280;5085;48.092;11.484;2023-01-10T13:02:25;95769.59;;;7.24;65.01
10093;BME280;5085;48.092;11.484;2023-01-10T13:04:57;95761.25;;;7.37;66.05
10093;BME280;5085;48.092;11.484;2023-01-10T13:07:29;95755.72;;;8.01;62.76
10093;BME280;5085;48.092;11.484;2023-01-10T13:09:57;95757.19;;;8.76;60.57
10093;BME280;5085;48.092;11.484;2023-01-10T13:12:29;95759.94;;;9.25;58.59
10093;BME280;5085;48.092;11.484;2023-01-10T13:15:16;95761.75;;;9.19;57.73
10093;BME280;5085;48.092;11.484;2023-01-10T13:17:49;95766.13;;;9.04;58.69
10093;BME280;5085;48.092;11.484;2023-01-10T13:22:44;95761.03;;;8.46;60.23
10093;BME280;5085;48.092;11.484;2023-01-10T13:28:17;95749.41;;;7.62;64.12
10093;BME280;5085;48.092;11.484;2023-01-10T13:30:50;95755.81;;;7.32;66.78
10093;BME280;5085;48.092;11.484;2023-01-10T13:33:26;95756.13;;;7.07;nan
10093;BME280;5085;48.092;11.484;2023-01-10T13:35:56;95763.38;;;6.95;69.60
10093;BME280;5085;48.092;11.484;2023-01-10T13:38:36;95749.78;;;6.85;70.50
10093;BME280;5085;48.092;11.484;2023-01-10T13:41:08;95753.88;;;6.75;72.03
10093;BME280;5085;48.092;11.484;2023-01-10T13:44:06;95763.41;;;6.71;73.66
10093;BME280;5085;48.092;11.484;2023-01-10T13:46:35;95763.88;;;6.68;74.25
10093;BME280;5085;48.092;11.484;2023-01-10T13:51:29;95764.22;;;6.60;76.83
10093;BME280;5085;48.092;11.484;2023-01-10T13:54:00;95765.28;;;6.59;77.74
10093;BME280;5085;48.092;11.484;2023-01-10T13:56:29;95760.38;;;6.56;78.20
10093;BME280;5085;48.092;11.484;2023-01-10T13:58:55;95758.06;;;6.48;78.54
10093;BME280;5085;48.092;11.484;2023-01-10T14:01:41;95757.72;;;6.44;79.40
10093;BME280;5085;48.092;11.484;2023-01-10T14:04:33;95758.66;;;6.38;81.71
10093;BME280;5085;48.092;11.484;2023-01-10T14:07:02;95756.31;;;6.30;82.48
10093;BME280;5085;48.092;11.484;2023-01-10T14:09:36;95758.88;;;6.25;83.22
10093;BME280;5085;48.092;11.484;2023-01-10T14:12:31;95759.34;;;6.22;83.72
10093;BME280;5085;48.092;11.484;2023-01-10T14:15:04;95769.78;;;6.23;83.42
10093;BME280;5085;48.092;11.484;2023-01-10T14:17:33;95760.84;;;6.18;79.49